Time;durP1;ratioP1;P1;durP2;ratioP2;P2;SDS_P1;SDS_P2;PMS_P1;PMS_P2;Temp;Humidity;BMP_temperature;BMP_pressure;BME280_temperature;BME280_humidity;BME280_pressure;Samples;Min_cycle;Max_cycle;Signal;HPM_P1;HPM_P2
2021/12/27 00:00:19;;;;;;;51.93;21.40;;;6.00;99.90;;;;;;5027436;28;20585;-71
2021/12/27 00:02:47;;;;;;;43.90;19.27;;;6.10;99.90;;;;;;5025747;28;20306;-71
2021/12/27 00:05:13;;;;;;;39.33;17.60;;;6.10;99.90;;;;;;5034087;28;20862;-71
2021/12/27 00:07:39;;;;;;;41.37;17.07;;;6.20;99.90;;;;;;5046633;28;20502;-71
2021/12/27 00:10:05;;;;;;;36.63;17.37;;;6.20;99.90;;;;;;5047463;28;20230;-72
2021/12/27 00:12:31;;;;;;;34.33;17.20;;;6.30;99.90;;;;;;5023319;28;20194;-71
2021/12/27 00:14:57;;;;;;;35.27;15.80;;;6.40;99.90;;;;;;5008784;28;20416;-71
2021/12/27 00:17:22;;;;;;;48.30;18.07;;;6.40;99.90;;;;;;5010688;28;20425;-71
2021/12/27 00:19:48;;;;;;;29.70;15.60;;;6.40;99.90;;;;;;5008617;28;20170;-71
2021/12/27 00:22:14;;;;;;;33.57;16.87;;;6.40;99.90;;;;;;5022089;28;20221;-71
2021/12/27 00:24:39;;;;;;;42.07;15.07;;;6.40;99.90;;;;;;5009995;28;20179;-70
2021/12/27 00:27:06;;;;;;;30.10;14.53;;;6.40;99.90;;;;;;5026958;28;20178;-71
2021/12/27 00:29:32;;;;;;;27.70;13.60;;;6.40;99.90;;;;;;5028787;28;20174;-70
2021/12/27 00:31:58;;;;;;;27.97;13.83;;;6.60;99.90;;;;;;5024201;28;20441;-71
2021/12/27 00:34:24;;;;;;;25.23;13.63;;;6.50;99.90;;;;;;5029730;28;20275;-71
2021/12/27 00:36:49;;;;;;;28.87;14.03;;;6.60;99.90;;;;;;5028231;28;20436;-70
2021/12/27 00:39:15;;;;;;;27.70;13.03;;;6.60;99.90;;;;;;5029755;28;20170;-70
2021/12/27 00:41:40;;;;;;;24.77;12.77;;;7.60;99.90;;;;;;5024457;28;20227;-70
2021/12/27 00:44:06;;;;;;;19.83;11.40;;;6.60;99.90;;;;;;5036032;28;20243;-71
2021/12/27 00:46:31;;;;;;;29.93;13.10;;;6.60;99.90;;;;;;5040408;28;20178;-70
2021/12/27 00:48:57;;;;;;;21.23;11.13;;;6.70;99.90;;;;;;5047795;28;20701;-71
2021/12/27 00:51:22;;;;;;;28.07;13.83;;;6.70;99.90;;;;;;5032054;28;20586;-70
2021/12/27 00:53:48;;;;;;;22.47;12.03;;;6.70;99.90;;;;;;5009405;28;20281;-71
2021/12/27 00:56:13;;;;;;;20.77;10.90;;;6.70;99.90;;;;;;5019411;28;20178;-70
2021/12/27 00:58:39;;;;;;;22.10;11.50;;;6.70;99.90;;;;;;5029117;28;20189;-71
2021/12/27 01:01:05;;;;;;;26.40;12.20;;;6.70;99.90;;;;;;5022138;28;20510;-70
2021/12/27 01:03:30;;;;;;;27.27;12.60;;;6.70;99.90;;;;;;5025004;28;20197;-71
2021/12/27 01:05:56;;;;;;;25.53;12.67;;;6.70;99.90;;;;;;5015820;28;20427;-70
2021/12/27 01:08:22;;;;;;;24.43;11.80;;;6.70;99.90;;;;;;5029839;28;20198;-71
2021/12/27 01:13:26;;;;;;;23.57;11.40;;;6.80;99.90;;;;;;5020153;28;20676;-69
2021/12/27 01:18:34;;;;;;;27.93;12.90;;;6.80;99.90;;;;;;5018351;28;20523;-71
2021/12/27 01:21:01;;;;;;;22.37;11.67;;;6.80;99.90;;;;;;5017524;28;20435;-70
2021/12/27 01:23:27;;;;;;;24.67;12.67;;;6.80;99.90;;;;;;5029589;28;20591;-70
2021/12/27 01:25:52;;;;;;;28.00;12.53;;;6.80;99.90;;;;;;5027070;28;20496;-71
2021/12/27 01:28:19;;;;;;;33.50;13.67;;;6.80;99.90;;;;;;5019588;28;20508;-71
2021/12/27 01:30:48;;;;;;;29.00;13.40;;;6.80;99.90;;;;;;5025723;28;20181;-70
2021/12/27 01:33:18;;;;;;;25.00;12.30;;;6.80;99.90;;;;;;5027534;28;20471;-70
2021/12/27 01:35:44;;;;;;;28.43;12.23;;;6.80;99.90;;;;;;5039927;28;20512;-71
2021/12/27 01:38:12;;;;;;;26.33;12.70;;;6.90;99.90;;;;;;5020825;28;20432;-71
2021/12/27 01:40:39;;;;;;;28.57;12.70;;;6.80;99.90;;;;;;5021610;28;20420;-71
2021/12/27 01:43:15;;;;;;;29.40;13.00;;;6.80;99.90;;;;;;5027811;28;20563;-71
2021/12/27 01:45:45;;;;;;;25.23;12.20;;;6.80;99.90;;;;;;5028270;28;20428;-70
2021/12/27 01:48:11;;;;;;;30.77;12.20;;;6.80;99.90;;;;;;5019135;28;20433;-71
2021/12/27 01:50:39;;;;;;;25.67;12.17;;;6.80;99.90;;;;;;5025387;28;20957;-70
2021/12/27 01:53:06;;;;;;;31.27;13.60;;;6.80;99.90;;;;;;5020642;28;20904;-72
2021/12/27 01:55:32;;;;;;;32.20;13.17;;;6.80;99.90;;;;;;5023475;28;20417;-72
2021/12/27 01:57:58;;;;;;;28.63;13.47;;;6.70;99.90;;;;;;5026170;28;20745;-71
2021/12/27 02:00:24;;;;;;;45.60;16.00;;;6.80;99.90;;;;;;5010303;28;20190;-72
2021/12/27 02:02:49;;;;;;;41.00;14.30;;;6.80;99.90;;;;;;5018816;28;20966;-72
2021/12/27 02:05:15;;;;;;;38.63;14.00;;;6.80;99.90;;;;;;5033468;28;20427;-72
2021/12/27 02:07:41;;;;;;;34.80;15.63;;;6.90;99.90;;;;;;5038735;28;20212;-72
2021/12/27 02:10:09;;;;;;;43.57;15.73;;;6.70;99.90;;;;;;5031572;28;20201;-71
2021/12/27 02:12:35;;;;;;;41.90;15.13;;;6.80;99.90;;;;;;5023680;28;20198;-71
2021/12/27 02:15:07;;;;;;;37.37;15.10;;;6.80;99.90;;;;;;5007021;28;20413;-71
2021/12/27 02:17:34;;;;;;;45.93;15.07;;;6.80;99.90;;;;;;5024458;28;20621;-71
2021/12/27 02:19:59;;;;;;;38.63;15.57;;;6.80;99.90;;;;;;5025844;28;20420;-71
2021/12/27 02:22:25;;;;;;;39.93;16.47;;;6.80;99.90;;;;;;5013920;28;20448;-71
2021/12/27 02:24:50;;;;;;;35.10;14.20;;;6.80;99.90;;;;;;5007766;28;20245;-71
2021/12/27 02:27:16;;;;;;;33.87;14.40;;;6.90;99.90;;;;;;5013572;28;20216;-71
2021/12/27 02:29:43;;;;;;;37.03;15.10;;;6.90;99.90;;;;;;5010416;28;20178;-71
2021/12/27 02:32:08;;;;;;;63.37;16.00;;;6.90;99.90;;;;;;5025606;28;20213;-71
2021/12/27 02:34:34;;;;;;;48.13;16.40;;;6.90;99.90;;;;;;5025221;28;20453;-71
2021/12/27 02:37:01;;;;;;;53.33;16.50;;;6.90;99.90;;;;;;5026377;28;20624;-72
2021/12/27 02:39:29;;;;;;;36.70;16.43;;;6.90;99.90;;;;;;5027187;28;20632;-71
2021/12/27 02:41:54;;;;;;;39.63;15.77;;;6.90;99.90;;;;;;5026326;28;20543;-71
2021/12/27 02:44:20;;;;;;;53.43;17.27;;;6.80;99.90;;;;;;5031488;28;20475;-71
2021/12/27 02:46:45;;;;;;;37.93;15.43;;;6.90;99.90;;;;;;5029657;28;20178;-70
2021/12/27 02:49:11;;;;;;;44.50;16.23;;;6.90;99.90;;;;;;5013564;28;20177;-71
2021/12/27 02:51:36;;;;;;;43.53;17.20;;;6.90;99.90;;;;;;5007349;28;20214;-71
2021/12/27 02:54:02;;;;;;;46.77;16.70;;;6.90;99.90;;;;;;5015041;28;20202;-71
2021/12/27 02:56:29;;;;;;;42.07;15.53;;;6.90;99.90;;;;;;5008126;28;20175;-71
2021/12/27 02:58:56;;;;;;;43.87;16.87;;;6.90;99.90;;;;;;5013960;28;20519;-71
2021/12/27 03:01:23;;;;;;;41.87;15.67;;;6.90;99.90;;;;;;5025736;28;20519;-71
2021/12/27 03:03:50;;;;;;;44.33;16.80;;;6.90;99.90;;;;;;5025004;28;20482;-71
2021/12/27 03:06:16;;;;;;;42.87;16.43;;;6.90;99.90;;;;;;5009218;28;20448;-71
2021/12/27 03:08:44;;;;;;;49.40;18.07;;;6.90;99.90;;;;;;5005840;28;20441;-71
2021/12/27 03:11:10;;;;;;;47.47;17.17;;;6.90;99.90;;;;;;5012280;28;20439;-71
2021/12/27 03:13:38;;;;;;;51.07;18.53;;;6.80;99.90;;;;;;5026673;28;20499;-71
2021/12/27 03:16:09;;;;;;;43.53;16.40;;;6.80;99.90;;;;;;5028407;28;20404;-71
2021/12/27 03:18:38;;;;;;;56.10;16.57;;;6.90;99.90;;;;;;5026307;28;20436;-71
2021/12/27 03:21:05;;;;;;;54.37;18.13;;;6.90;99.90;;;;;;5013405;28;20475;-71
2021/12/27 03:23:32;;;;;;;49.00;17.30;;;6.90;99.90;;;;;;5026900;28;20949;-71
2021/12/27 03:25:58;;;;;;;59.93;18.77;;;6.80;99.90;;;;;;5027099;28;20467;-71
2021/12/27 03:28:24;;;;;;;52.33;17.60;;;;;;;;;;5029622;28;20841;-71
2021/12/27 03:30:50;;;;;;;43.63;16.90;;;6.70;99.90;;;;;;5024672;28;20200;-71
2021/12/27 03:33:20;;;;;;;48.87;16.40;;;6.80;99.90;;;;;;5028476;28;20476;-71
2021/12/27 03:36:01;;;;;;;44.03;16.73;;;6.80;99.90;;;;;;5030818;28;20822;-71
2021/12/27 03:38:52;;;;;;;39.27;15.87;;;6.90;99.90;;;;;;5021259;28;20538;-71
2021/12/27 03:41:21;;;;;;;37.03;16.07;;;6.90;99.90;;;;;;5033512;28;20504;-71
2021/12/27 03:43:47;;;;;;;42.20;15.30;;;6.90;99.90;;;;;;5031543;28;20455;-71
2021/12/27 03:46:13;;;;;;;38.43;15.40;;;7.00;99.90;;;;;;5021930;28;20464;-71
2021/12/27 03:48:39;;;;;;;37.77;15.53;;;7.00;99.90;;;;;;5017872;28;20255;-71
2021/12/27 03:51:06;;;;;;;36.13;15.20;;;7.00;99.90;;;;;;5030123;28;20424;-71
2021/12/27 03:53:32;;;;;;;38.97;15.97;;;7.00;99.90;;;;;;5028291;28;20588;-71
2021/12/27 03:55:58;;;;;;;39.20;14.93;;;7.00;99.90;;;;;;5020741;28;20463;-71
2021/12/27 03:58:45;;;;;;;36.57;15.70;;;7.00;99.90;;;;;;5012800;28;20730;-71
2021/12/27 04:01:16;;;;;;;42.17;16.27;;;7.10;99.90;;;;;;5028225;28;20505;-71
2021/12/27 04:03:47;;;;;;;31.53;14.07;;;7.20;99.90;;;;;;5030443;28;20542;-71
2021/12/27 04:06:16;;;;;;;32.60;13.80;;;7.20;99.90;;;;;;5036884;28;20417;-71
2021/12/27 04:08:41;;;;;;;32.93;15.00;;;7.20;99.90;;;;;;5026739;28;20445;-72
2021/12/27 04:11:07;;;;;;;33.90;14.90;;;7.20;99.90;;;;;;5024409;28;20873;-71
2021/12/27 04:13:33;;;;;;;41.97;15.60;;;7.20;99.90;;;;;;5020010;28;20541;-71
2021/12/27 04:15:59;;;;;;;32.37;14.33;;;7.30;99.90;;;;;;5013731;28;20201;-72
2021/12/27 04:18:25;;;;;;;35.67;15.10;;;7.30;99.90;;;;;;5018806;28;20713;-71
2021/12/27 04:20:51;;;;;;;39.13;15.93;;;7.30;99.90;;;;;;5010578;28;20417;-71
2021/12/27 04:23:17;;;;;;;44.80;16.33;;;7.30;99.90;;;;;;5010066;28;20206;-71
2021/12/27 04:25:44;;;;;;;38.57;16.30;;;7.30;99.90;;;;;;5012815;28;20179;-71
2021/12/27 04:28:09;;;;;;;39.33;14.77;;;7.30;99.90;;;;;;5014281;28;20534;-71
2021/12/27 04:30:35;;;;;;;47.93;16.90;;;7.30;99.90;;;;;;5021123;28;20505;-71
2021/12/27 04:33:01;;;;;;;39.33;16.17;;;7.30;99.90;;;;;;5026600;28;20208;-71
2021/12/27 04:35:27;;;;;;;42.67;15.33;;;7.30;99.90;;;;;;5028846;28;20170;-71
2021/12/27 04:37:52;;;;;;;40.90;15.07;;;7.30;99.90;;;;;;5021459;28;20182;-71
2021/12/27 04:40:21;;;;;;;38.97;15.77;;;7.30;99.90;;;;;;5008674;28;20170;-71
2021/12/27 04:42:51;;;;;;;40.53;15.40;;;7.20;99.90;;;;;;5010467;28;20198;-72
2021/12/27 04:45:17;;;;;;;35.50;15.00;;;7.20;99.90;;;;;;5029511;28;20430;-71
2021/12/27 04:47:44;;;;;;;36.23;15.00;;;7.10;99.90;;;;;;5036453;28;20834;-70
2021/12/27 04:50:10;;;;;;;33.53;14.90;;;7.10;99.90;;;;;;5027919;28;20793;-71
2021/12/27 04:52:36;;;;;;;35.57;15.40;;;7.20;99.90;;;;;;5021573;28;20457;-71
2021/12/27 04:55:02;;;;;;;36.20;14.90;;;7.20;99.90;;;;;;5008459;28;20668;-71
2021/12/27 04:57:28;;;;;;;33.93;14.40;;;7.30;99.90;;;;;;5026967;28;20178;-71
2021/12/27 04:59:54;;;;;;;35.90;14.30;;;7.30;99.90;;;;;;5008246;28;20475;-71
2021/12/27 05:02:19;;;;;;;35.13;15.17;;;7.30;99.90;;;;;;5018637;28;20689;-72
2021/12/27 05:04:45;;;;;;;46.00;15.80;;;7.20;99.90;;;;;;5027480;28;20182;-71
2021/12/27 05:07:11;;;;;;;39.33;14.83;;;7.20;99.90;;;;;;5016861;28;20175;-71
2021/12/27 05:09:36;;;;;;;36.63;15.10;;;7.20;99.90;;;;;;5027433;28;20589;-70
2021/12/27 05:12:02;;;;;;;39.87;14.33;;;7.10;99.90;;;;;;5029556;28;20198;-71
2021/12/27 05:14:28;;;;;;;43.70;15.50;;;7.10;99.90;;;;;;5027706;28;20201;-71
2021/12/27 05:16:54;;;;;;;38.30;16.27;;;7.10;99.90;;;;;;5016786;28;20526;-71
2021/12/27 05:19:19;;;;;;;32.33;15.00;;;7.10;99.90;;;;;;5011550;28;20177;-71
2021/12/27 05:21:45;;;;;;;40.90;15.97;;;7.10;99.90;;;;;;5009661;28;20433;-71
2021/12/27 05:24:12;;;;;;;44.30;15.47;;;7.10;99.90;;;;;;5011160;28;20181;-71
2021/12/27 05:26:38;;;;;;;31.30;14.17;;;7.10;99.90;;;;;;5021541;28;20336;-70
2021/12/27 05:29:03;;;;;;;28.73;14.07;;;7.20;99.90;;;;;;5026130;28;20523;-72
2021/12/27 05:31:29;;;;;;;34.60;13.90;;;7.30;99.90;;;;;;5026668;28;20178;-71
2021/12/27 05:33:54;;;;;;;31.37;13.40;;;7.30;99.90;;;;;;5027220;28;20598;-71
2021/12/27 05:36:20;;;;;;;24.40;13.17;;;7.40;99.90;;;;;;5021717;28;20254;-71
2021/12/27 05:38:45;;;;;;;43.07;14.80;;;7.30;99.90;;;;;;5019635;28;20580;-71
2021/12/27 05:41:11;;;;;;;31.17;14.80;;;7.30;99.90;;;;;;5008852;28;20194;-71
2021/12/27 05:43:37;;;;;;;29.67;13.87;;;7.30;99.90;;;;;;5022559;28;20197;-71
2021/12/27 05:46:02;;;;;;;23.90;12.73;;;7.30;99.90;;;;;;5016820;28;20186;-71
2021/12/27 05:48:28;;;;;;;28.23;13.70;;;7.20;99.90;;;;;;5006782;28;20704;-71
2021/12/27 05:50:54;;;;;;;29.57;13.00;;;7.30;99.90;;;;;;5008398;28;20249;-71
2021/12/27 05:53:20;;;;;;;26.80;13.73;;;7.30;99.90;;;;;;5018375;28;20217;-71
2021/12/27 05:55:46;;;;;;;29.70;14.70;;;7.30;99.90;;;;;;5024859;28;20252;-71
2021/12/27 05:58:11;;;;;;;25.57;13.00;;;7.40;99.90;;;;;;5046693;28;20439;-71
2021/12/27 06:00:37;;;;;;;27.47;14.00;;;7.40;99.90;;;;;;5033828;28;20182;-71
2021/12/27 06:03:03;;;;;;;25.70;12.80;;;7.40;99.90;;;;;;5026437;28;20206;-71
2021/12/27 06:05:29;;;;;;;27.07;12.43;;;7.40;99.90;;;;;;5020691;28;20580;-71
2021/12/27 06:07:54;;;;;;;21.97;11.63;;;7.40;99.90;;;;;;5037843;28;20444;-71
2021/12/27 06:10:21;;;;;;;20.70;11.40;;;7.40;99.90;;;;;;5021397;28;20191;-72
2021/12/27 06:12:47;;;;;;;23.83;12.30;;;7.40;99.90;;;;;;5014926;28;20218;-72
2021/12/27 06:15:13;;;;;;;24.10;11.90;;;7.50;99.90;;;;;;5013839;28;20444;-72
2021/12/27 06:17:39;;;;;;;19.20;10.20;;;7.50;99.90;;;;;;5019639;28;20428;-71
2021/12/27 06:20:09;;;;;;;20.77;11.27;;;7.50;99.90;;;;;;5007546;28;21010;-71
2021/12/27 06:22:35;;;;;;;18.70;10.57;;;7.50;99.90;;;;;;5007294;28;20537;-71
2021/12/27 06:25:03;;;;;;;17.43;9.97;;;7.50;99.90;;;;;;5008672;28;20432;-71
2021/12/27 06:27:31;;;;;;;18.70;10.23;;;7.50;99.90;;;;;;5023795;28;20415;-71
2021/12/27 06:29:57;;;;;;;17.63;10.10;;;7.50;99.90;;;;;;5029462;28;20539;-72
2021/12/27 06:32:23;;;;;;;23.47;11.47;;;7.40;99.90;;;;;;5025816;28;20457;-71
2021/12/27 06:34:49;;;;;;;21.80;11.33;;;7.40;99.90;;;;;;5019630;28;20476;-72
2021/12/27 06:37:14;;;;;;;22.60;11.67;;;7.30;99.90;;;;;;5009547;28;20196;-71
2021/12/27 06:39:40;;;;;;;24.90;11.43;;;7.30;99.90;;;;;;5013702;28;20625;-72
2021/12/27 06:42:06;;;;;;;27.20;12.30;;;7.20;99.90;;;;;;5006882;28;20203;-71
2021/12/27 16:03:34;;;;;;;14.83;8.00;;;;;;;;;;5063346;28;20589;-69
2021/12/27 16:06:01;;;;;;;10.00;6.67;;;8.80;99.90;;;;;;5045546;28;20961;-70
2021/12/27 16:08:27;;;;;;;7.30;5.90;;;9.10;99.90;;;;;;5036610;28;20798;-70
2021/12/27 16:10:55;;;;;;;6.40;5.00;;;9.40;99.90;;;;;;5025050;28;20420;-70
2021/12/27 16:13:21;;;;;;;8.80;5.57;;;9.50;99.90;;;;;;5049268;28;20359;-70
2021/12/27 16:15:46;;;;;;;8.27;5.80;;;9.60;99.90;;;;;;5063248;28;20920;-71
2021/12/27 16:18:13;;;;;;;7.70;5.20;;;;;;;;;;5048437;28;20181;-70
2021/12/27 16:20:40;;;;;;;6.83;5.60;;;;;;;;;;5044272;28;20259;-70
2021/12/27 16:23:05;;;;;;;8.67;5.90;;;9.90;99.90;;;;;;5044709;28;20443;-71
2021/12/27 16:25:31;;;;;;;7.20;5.20;;;9.80;99.90;;;;;;5044645;28;20710;-70
2021/12/27 16:27:57;;;;;;;11.20;6.53;;;10.00;99.90;;;;;;5042670;28;20628;-70
2021/12/27 16:30:23;;;;;;;7.85;6.10;;;10.40;99.90;;;;;;5045202;28;20439;-71
2021/12/27 16:32:49;;;;;;;7.77;6.23;;;10.40;99.90;;;;;;5051097;28;20264;-71
2021/12/27 16:35:15;;;;;;;8.07;6.33;;;;;;;;;;5059092;28;20975;-72
2021/12/27 16:37:41;;;;;;;14.60;7.43;;;10.30;99.90;;;;;;5053658;28;20558;-71
2021/12/27 16:40:13;;;;;;;11.27;7.40;;;10.30;99.90;;;;;;5043803;28;20427;-72
2021/12/27 16:42:40;;;;;;;8.70;5.60;;;10.20;99.90;;;;;;5043430;28;20200;-72
2021/12/27 16:45:07;;;;;;;9.50;7.73;;;;;;;;;;5050003;28;20481;-71
2021/12/27 16:47:32;;;;;;;23.33;20.87;;;10.20;99.90;;;;;;5038672;28;20791;-72
2021/12/27 16:49:58;;;;;;;9.40;7.60;;;10.30;99.90;;;;;;5023939;28;20567;-72
2021/12/27 16:52:24;;;;;;;9.63;7.37;;;10.20;99.90;;;;;;5057707;28;20591;-72
2021/12/27 16:54:50;;;;;;;15.37;12.73;;;10.20;99.90;;;;;;5043998;28;20170;-71
2021/12/27 16:57:16;;;;;;;12.17;8.23;;;10.20;99.90;;;;;;5042831;28;20290;-72
2021/12/27 16:59:42;;;;;;;6.07;5.37;;;10.20;99.90;;;;;;5043458;28;20188;-71
2021/12/27 17:02:09;;;;;;;9.40;6.50;;;10.20;99.90;;;;;;5039752;28;20506;-71
2021/12/27 17:04:35;;;;;;;7.73;6.60;;;10.20;99.90;;;;;;5052550;28;20172;-71
2021/12/27 17:07:01;;;;;;;10.10;6.87;;;;;;;;;;5056006;28;20533;-72
2021/12/27 17:09:26;;;;;;;8.30;5.77;;;10.20;99.90;;;;;;5024183;28;20250;-72
2021/12/27 17:11:52;;;;;;;7.33;5.77;;;10.10;99.90;;;;;;5045996;28;20539;-71
2021/12/27 17:14:20;;;;;;;9.27;6.40;;;;;;;;;;5034067;28;20509;-71
2021/12/27 17:16:45;;;;;;;11.30;6.20;;;10.20;99.90;;;;;;5026583;28;20272;-71
2021/12/27 17:19:11;;;;;;;9.40;6.17;;;10.10;99.90;;;;;;5031611;28;20523;-72
2021/12/27 17:21:36;;;;;;;11.30;6.17;;;9.90;99.90;;;;;;5032079;28;20205;-72
2021/12/27 17:24:03;;;;;;;9.77;7.30;;;;;;;;;;5049139;28;20596;-72
2021/12/27 17:26:28;;;;;;;10.13;7.00;;;9.90;99.90;;;;;;5038307;28;20353;-72
2021/12/27 17:28:55;;;;;;;7.93;6.30;;;9.90;99.90;;;;;;5034408;28;20527;-71
2021/12/27 17:31:21;;;;;;;9.67;6.00;;;10.00;99.90;;;;;;5035830;28;20206;-72
2021/12/27 17:33:46;;;;;;;15.73;7.73;;;10.00;99.90;;;;;;5035102;28;20499;-71
2021/12/27 17:36:12;;;;;;;5.73;4.33;;;10.00;99.90;;;;;;5023469;28;20182;-72
2021/12/27 17:38:40;;;;;;;9.47;6.70;;;;;;;;;;5028377;28;20273;-72
2021/12/27 17:41:05;;;;;;;9.60;6.57;;;10.10;99.90;;;;;;5028775;28;20166;-71
2021/12/27 17:43:31;;;;;;;8.50;5.97;;;10.00;99.90;;;;;;5020197;28;20471;-72
2021/12/27 17:45:57;;;;;;;10.73;6.87;;;;;;;;;;5019767;28;20272;-71
2021/12/27 17:48:23;;;;;;;9.60;6.20;;;10.10;99.90;;;;;;5026059;28;20210;-72
2021/12/27 17:50:49;;;;;;;6.37;5.37;;;10.00;99.90;;;;;;5019664;28;20497;-72
2021/12/27 17:53:14;;;;;;;6.00;5.10;;;10.10;99.90;;;;;;5025394;28;20198;-72
2021/12/27 17:55:40;;;;;;;6.30;5.40;;;9.90;99.90;;;;;;5022341;28;20723;-72
2021/12/27 17:58:06;;;;;;;8.33;5.30;;;10.00;99.90;;;;;;5022160;28;20284;-72
2021/12/27 18:00:32;;;;;;;13.73;7.83;;;10.00;99.90;;;;;;5022055;28;20243;-72
2021/12/27 18:02:58;;;;;;;5.87;5.07;;;10.10;99.90;;;;;;5034775;28;20659;-72
2021/12/27 18:05:24;;;;;;;6.93;4.50;;;10.10;99.90;;;;;;5026742;28;20429;-72
2021/12/27 18:07:50;;;;;;;6.13;5.53;;;10.00;99.90;;;;;;5026324;28;20424;-72
2021/12/27 18:10:17;;;;;;;7.33;5.33;;;;;;;;;;5028525;28;20581;-72
2021/12/27 18:12:43;;;;;;;6.40;5.47;;;;;;;;;;5026262;28;20453;-72
2021/12/27 18:15:10;;;;;;;6.87;5.20;;;10.00;99.90;;;;;;5023775;28;20416;-72
2021/12/27 18:17:36;;;;;;;8.90;5.67;;;10.00;99.90;;;;;;5021446;28;20548;-72
2021/12/27 18:20:05;;;;;;;6.90;6.00;;;9.70;99.90;;;;;;5022432;28;20940;-71
2021/12/27 18:22:31;;;;;;;8.93;6.23;;;;;;;;;;5016707;28;20598;-71
2021/12/27 18:24:56;;;;;;;15.40;6.70;;;9.60;99.90;;;;;;5028790;28;20967;-69
2021/12/27 18:27:22;;;;;;;8.13;6.10;;;9.50;99.90;;;;;;5027468;28;20178;-70
2021/12/27 18:29:47;;;;;;;11.10;6.37;;;9.50;99.90;;;;;;5026855;28;20718;-69
2021/12/27 18:32:14;;;;;;;8.63;6.20;;;;;;;;;;5023734;28;20684;-70
2021/12/27 18:34:41;;;;;;;10.33;6.77;;;9.50;99.90;;;;;;5033866;28;20247;-70
2021/12/27 18:37:08;;;;;;;11.63;7.53;;;;;;;;;;5048466;28;20470;-70
2021/12/27 18:39:33;;;;;;;11.13;7.30;;;9.40;99.90;;;;;;5022962;28;20493;-70
2021/12/27 18:41:59;;;;;;;11.00;8.07;;;9.40;99.90;;;;;;5025978;28;20473;-70
2021/12/27 18:44:25;;;;;;;9.20;7.53;;;9.30;99.90;;;;;;5019105;28;20669;-70
2021/12/27 18:46:51;;;;;;;10.27;7.80;;;9.30;99.90;;;;;;5028327;28;20548;-70
2021/12/27 18:49:16;;;;;;;9.70;7.27;;;9.30;99.90;;;;;;5033561;28;20185;-70
2021/12/27 18:51:42;;;;;;;11.80;8.03;;;9.40;99.90;;;;;;5044457;28;20427;-70
2021/12/27 18:54:07;;;;;;;9.00;7.33;;;9.40;99.90;;;;;;5019214;28;20232;-70
2021/12/27 18:56:33;;;;;;;14.70;7.17;;;9.40;99.90;;;;;;5018255;28;20178;-70
2021/12/27 18:58:59;;;;;;;13.97;7.27;;;9.50;99.90;;;;;;5033223;28;20268;-70
2021/12/27 19:01:25;;;;;;;10.53;7.53;;;;;;;;;;5026583;28;20189;-70
2021/12/27 19:03:50;;;;;;;10.33;7.77;;;9.50;99.90;;;;;;5038948;28;20189;-70
2021/12/27 19:06:16;;;;;;;12.50;8.13;;;9.50;99.90;;;;;;5047477;28;20607;-70
2021/12/27 19:08:46;;;;;;;11.10;8.30;;;9.50;99.90;;;;;;5035685;28;20420;-70
2021/12/27 19:11:12;;;;;;;12.80;8.30;;;9.50;99.90;;;;;;5025026;28;20175;-70
2021/12/27 19:13:37;;;;;;;10.13;8.13;;;9.60;99.90;;;;;;5022483;28;20452;-70
2021/12/27 19:16:04;;;;;;;9.33;7.80;;;9.60;99.90;;;;;;5009087;28;20600;-69
2021/12/27 19:18:30;;;;;;;10.33;8.80;;;9.60;99.90;;;;;;5008480;28;20169;-70
2021/12/27 19:20:56;;;;;;;12.80;9.20;;;9.60;99.90;;;;;;5031931;28;20432;-69
2021/12/27 19:23:22;;;;;;;11.67;8.53;;;9.60;99.90;;;;;;5028310;28;20221;-70
2021/12/27 19:25:48;;;;;;;11.63;8.83;;;9.60;99.90;;;;;;5025904;28;20243;-70
2021/12/27 19:28:14;;;;;;;12.77;9.00;;;9.60;99.90;;;;;;5027261;28;20428;-69
2021/12/27 19:30:39;;;;;;;14.60;9.33;;;9.60;99.90;;;;;;5033289;28;20763;-69
2021/12/27 19:33:05;;;;;;;14.23;8.57;;;9.70;99.90;;;;;;5020481;28;20201;-70
2021/12/27 19:35:30;;;;;;;15.73;10.40;;;9.70;99.90;;;;;;5026967;28;20597;-69
2021/12/27 19:37:59;;;;;;;14.67;9.80;;;9.60;99.90;;;;;;5026930;28;20178;-70
2021/12/27 19:40:31;;;;;;;16.07;10.23;;;9.60;99.90;;;;;;5034514;28;20181;-69
2021/12/27 19:42:56;;;;;;;13.27;7.80;;;9.60;99.90;;;;;;5024546;28;21024;-70
2021/12/27 19:45:22;;;;;;;23.57;11.60;;;9.60;99.90;;;;;;5025747;28;20575;-69
2021/12/27 19:47:49;;;;;;;20.40;14.17;;;9.60;99.90;;;;;;5024451;28;20524;-70
2021/12/27 19:50:16;;;;;;;21.07;14.17;;;9.60;99.90;;;;;;5036803;28;20192;-70
2021/12/27 19:52:41;;;;;;;14.33;10.70;;;9.60;99.90;;;;;;5008039;28;20513;-70
2021/12/27 19:55:08;;;;;;;12.07;8.63;;;9.60;99.90;;;;;;5007736;28;20844;-70
2021/12/27 19:57:33;;;;;;;12.60;8.60;;;9.50;99.90;;;;;;5008650;28;20537;-70
2021/12/27 19:59:59;;;;;;;13.33;8.33;;;9.50;99.90;;;;;;5030826;28;20431;-70
2021/12/27 20:02:24;;;;;;;9.50;7.77;;;9.50;99.90;;;;;;5025831;28;20213;-70
2021/12/27 20:04:50;;;;;;;10.50;8.30;;;9.50;99.90;;;;;;5030865;28;20200;-69
2021/12/27 20:07:15;;;;;;;9.97;7.90;;;9.50;99.90;;;;;;5024977;28;20178;-70
2021/12/27 20:09:41;;;;;;;8.27;7.47;;;9.40;99.90;;;;;;5045202;28;20174;-70
2021/12/27 20:12:07;;;;;;;9.80;7.77;;;9.40;99.90;;;;;;5029429;28;20256;-70
2021/12/27 20:14:33;;;;;;;11.17;7.90;;;9.40;99.90;;;;;;5006349;28;20189;-69
2021/12/27 20:16:59;;;;;;;10.83;8.10;;;;;;;;;;5008011;28;20433;-70
2021/12/27 20:19:25;;;;;;;11.80;8.53;;;;;;;;;;5036593;28;20268;-70
2021/12/27 20:21:51;;;;;;;16.80;9.90;;;9.40;99.90;;;;;;5029357;28;20460;-69
2021/12/27 20:24:16;;;;;;;17.73;10.50;;;9.40;99.90;;;;;;5027643;28;20428;-70
2021/12/27 20:26:42;;;;;;;19.20;11.87;;;9.40;99.90;;;;;;5026306;28;20193;-69
2021/12/27 20:29:09;;;;;;;13.87;9.63;;;9.40;99.90;;;;;;5029458;28;20200;-70
2021/12/27 20:31:36;;;;;;;17.10;9.43;;;9.40;99.90;;;;;;5032705;28;20225;-69
2021/12/27 20:34:02;;;;;;;15.67;8.87;;;;;;;;;;5039252;28;20996;-69
2021/12/27 20:36:28;;;;;;;10.07;7.90;;;9.40;99.90;;;;;;5040073;28;20473;-71
2021/12/27 20:38:53;;;;;;;11.83;7.37;;;9.30;99.90;;;;;;5047132;28;20813;-70
2021/12/27 20:41:19;;;;;;;21.33;8.57;;;9.30;99.90;;;;;;5036780;28;20190;-70
2021/12/27 20:43:44;;;;;;;9.70;7.37;;;9.40;99.90;;;;;;5024780;28;20221;-69
2021/12/27 20:46:10;;;;;;;13.13;8.20;;;9.40;99.90;;;;;;5026185;28;20181;-70
2021/12/27 20:48:35;;;;;;;16.63;8.10;;;9.40;99.90;;;;;;5048290;28;20303;-70
2021/12/27 20:51:01;;;;;;;16.17;8.53;;;9.30;99.90;;;;;;5047614;28;20528;-70
2021/12/27 20:53:27;;;;;;;10.13;6.77;;;9.40;99.90;;;;;;5031174;28;20600;-70
2021/12/27 20:55:53;;;;;;;10.30;7.50;;;;;;;;;;5036226;28;20596;-69
2021/12/27 20:58:20;;;;;;;11.27;7.10;;;9.40;99.90;;;;;;5011358;28;20190;-70
2021/12/27 21:00:48;;;;;;;14.13;9.20;;;9.40;99.90;;;;;;5012758;28;20197;-69
2021/12/27 21:03:14;;;;;;;12.30;8.10;;;9.40;99.90;;;;;;5025618;28;20467;-70
2021/12/27 21:05:40;;;;;;;8.50;6.63;;;;;;;;;;5032886;28;20480;-70
2021/12/27 21:08:09;;;;;;;10.80;8.00;;;9.40;99.90;;;;;;5030876;28;20452;-70
2021/12/27 21:10:37;;;;;;;8.40;6.47;;;9.40;99.90;;;;;;5030375;28;20420;-70
2021/12/27 21:13:02;;;;;;;8.00;5.90;;;9.40;99.90;;;;;;5015534;28;20449;-70
2021/12/27 21:15:28;;;;;;;12.50;6.50;;;9.30;99.90;;;;;;5015058;28;20471;-70
2021/12/27 21:17:54;;;;;;;9.10;6.50;;;9.40;99.90;;;;;;5035103;28;20190;-69
2021/12/27 21:20:22;;;;;;;7.67;5.77;;;9.40;99.90;;;;;;5030000;28;20236;-70
2021/12/27 21:22:48;;;;;;;6.97;5.23;;;9.50;99.90;;;;;;5029306;28;20217;-70
2021/12/27 21:25:14;;;;;;;9.00;6.10;;;9.50;99.90;;;;;;5029822;28;20421;-70
2021/12/27 21:27:40;;;;;;;10.23;6.37;;;9.40;99.90;;;;;;5023268;28;20177;-70
2021/12/27 21:30:07;;;;;;;8.07;6.20;;;9.50;99.90;;;;;;5049973;28;20199;-71
2021/12/27 21:32:33;;;;;;;7.80;6.10;;;9.40;99.90;;;;;;5023287;28;20467;-70
2021/12/27 21:34:59;;;;;;;7.33;6.00;;;9.40;99.90;;;;;;5029446;28;20490;-69
2021/12/27 21:37:25;;;;;;;12.90;7.50;;;9.30;99.90;;;;;;5035793;28;20208;-69
2021/12/27 21:39:51;;;;;;;11.40;7.43;;;9.40;99.90;;;;;;5023041;28;20642;-70
2021/12/27 21:42:18;;;;;;;12.77;7.70;;;9.40;99.90;;;;;;5024351;28;20470;-70
2021/12/27 21:44:45;;;;;;;11.60;8.50;;;9.40;99.90;;;;;;5023381;28;20429;-70
2021/12/27 21:47:11;;;;;;;14.27;9.70;;;9.40;99.90;;;;;;5017600;28;20425;-70
2021/12/27 21:49:36;;;;;;;15.27;9.57;;;9.50;99.90;;;;;;5013502;28;20437;-70
2021/12/27 21:52:02;;;;;;;11.70;9.07;;;9.60;99.90;;;;;;5025954;28;20209;-70
2021/12/27 21:54:28;;;;;;;12.30;8.43;;;9.60;99.90;;;;;;5034844;28;20185;-70
2021/12/27 21:56:54;;;;;;;14.00;6.93;;;9.40;99.90;;;;;;5027929;28;20992;-70
2021/12/27 21:59:20;;;;;;;9.50;7.40;;;9.50;99.90;;;;;;5026505;28;20813;-70
2021/12/27 22:01:46;;;;;;;12.70;8.47;;;9.40;99.90;;;;;;5029442;28;20201;-70
2021/12/27 22:04:11;;;;;;;9.73;6.63;;;9.40;99.90;;;;;;5021600;28;20417;-70
2021/12/27 22:06:37;;;;;;;9.43;7.27;;;9.40;99.90;;;;;;5023720;28;21123;-69